sensor_id;sensor_type;location;lat;lon;timestamp;temperature;humidity
2851;DHT22;1433;49.976;8.342;2022-12-29T00:02:24;11.50;99.90
2851;DHT22;1433;49.976;8.342;2022-12-29T00:04:50;11.50;99.90
2851;DHT22;1433;49.976;8.342;2022-12-29T00:07:17;11.50;99.90
2851;DHT22;1433;49.976;8.342;2022-12-29T00:09:43;11.60;99.90
2851;DHT22;1433;49.976;8.342;2022-12-29T00:12:10;11.60;99.90
2851;DHT22;1433;49.976;8.342;2022-12-29T00:14:36;11.60;99.90
2851;DHT22;1433;49.976;8.342;2022-12-29T00:17:20;11.60;99.90
2851;DHT22;1433;49.976;8.342;2022-12-29T00:19:47;11.70;99.90
2851;DHT22;1433;49.976;8.342;2022-12-29T00:22:31;11.70;99.90
2851;DHT22;1433;49.976;8.342;2022-12-29T00:25:17;11.70;99.90
2851;DHT22;1433;49.976;8.342;2022-12-29T00:28:01;11.70;99.90
2851;DHT22;1433;49.976;8.342;2022-12-29T00:30:46;11.70;99.90
2851;DHT22;1433;49.976;8.342;2022-12-29T00:33:32;11.70;99.90
2851;DHT22;1433;49.976;8.342;2022-12-29T00:36:34;11.70;99.90
2851;DHT22;1433;49.976;8.342;2022-12-29T00:39:05;11.70;99.90
2851;DHT22;1433;49.976;8.342;2022-12-29T00:41:49;11.70;99.90
2851;DHT22;1433;49.976;8.342;2022-12-29T00:44:34;11.70;99.90
2851;DHT22;1433;49.976;8.342;2022-12-29T00:47:02;11.70;99.90
2851;DHT22;1433;49.976;8.342;2022-12-29T00:49:32;11.70;99.90
2851;DHT22;1433;49.976;8.342;2022-12-29T00:52:11;11.60;99.90
2851;DHT22;1433;49.976;8.342;2022-12-29T00:54:36;11.60;99.90
2851;DHT22;1433;49.976;8.342;2022-12-29T00:57:03;11.60;99.90
2851;DHT22;1433;49.976;8.342;2022-12-29T00:59:30;11.50;99.90
2851;DHT22;1433;49.976;8.342;2022-12-29T01:01:56;11.50;99.90
2851;DHT22;1433;49.976;8.342;2022-12-29T01:04:24;11.50;99.90
2851;DHT22;1433;49.976;8.342;2022-12-29T01:06:50;11.40;99.90
2851;DHT22;1433;49.976;8.342;2022-12-29T01:09:17;11.40;99.90
2851;DHT22;1433;49.976;8.342;2022-12-29T01:12:03;11.40;99.90
2851;DHT22;1433;49.976;8.342;2022-12-29T01:14:29;11.50;99.90
2851;DHT22;1433;49.976;8.342;2022-12-29T01:16:57;11.50;99.90
2851;DHT22;1433;49.976;8.342;2022-12-29T01:19:23;11.50;99.90
2851;DHT22;1433;49.976;8.342;2022-12-29T01:21:49;11.40;99.90
2851;DHT22;1433;49.976;8.342;2022-12-29T01:24:17;11.40;99.90
2851;DHT22;1433;49.976;8.342;2022-12-29T01:26:44;11.40;99.90
2851;DHT22;1433;49.976;8.342;2022-12-29T01:29:10;11.40;99.90
2851;DHT22;1433;49.976;8.342;2022-12-29T01:31:36;11.40;99.90
2851;DHT22;1433;49.976;8.342;2022-12-29T01:34:02;11.40;99.90
2851;DHT22;1433;49.976;8.342;2022-12-29T01:36:29;11.40;99.90
2851;DHT22;1433;49.976;8.342;2022-12-29T01:38:56;11.30;99.90
2851;DHT22;1433;49.976;8.342;2022-12-29T01:41:22;11.40;99.90
2851;DHT22;1433;49.976;8.342;2022-12-29T01:43:51;11.40;99.90
2851;DHT22;1433;49.976;8.342;2022-12-29T01:46:39;11.40;99.90
2851;DHT22;1433;49.976;8.342;2022-12-29T01:51:57;11.50;99.90
2851;DHT22;1433;49.976;8.342;2022-12-29T01:54:25;11.50;99.90
2851;DHT22;1433;49.976;8.342;2022-12-29T01:56:55;11.50;99.90
2851;DHT22;1433;49.976;8.342;2022-12-29T01:59:26;11.50;99.90
2851;DHT22;1433;49.976;8.342;2022-12-29T02:01:53;11.50;99.90
2851;DHT22;1433;49.976;8.342;2022-12-29T02:04:19;11.50;99.90
2851;DHT22;1433;49.976;8.342;2022-12-29T02:06:54;11.50;99.90
2851;DHT22;1433;49.976;8.342;2022-12-29T02:09:22;11.40;99.90
2851;DHT22;1433;49.976;8.342;2022-12-29T02:11:50;11.30;99.90
2851;DHT22;1433;49.976;8.342;2022-12-29T02:14:17;11.30;99.90
2851;DHT22;1433;49.976;8.342;2022-12-29T02:33:01;11.20;99.90
2851;DHT22;1433;49.976;8.342;2022-12-29T02:37:54;11.00;99.90
2851;DHT22;1433;49.976;8.342;2022-12-29T02:40:23;11.00;99.90
2851;DHT22;1433;49.976;8.342;2022-12-29T02:42:56;11.00;99.90
2851;DHT22;1433;49.976;8.342;2022-12-29T02:48:30;11.00;99.90
2851;DHT22;1433;49.976;8.342;2022-12-29T02:53:28;11.00;99.90
2851;DHT22;1433;49.976;8.342;2022-12-29T02:56:14;11.10;99.90
2851;DHT22;1433;49.976;8.342;2022-12-29T02:58:40;11.10;99.90
2851;DHT22;1433;49.976;8.342;2022-12-29T03:04:10;11.10;99.90
2851;DHT22;1433;49.976;8.342;2022-12-29T03:12:24;11.10;99.90
2851;DHT22;1433;49.976;8.342;2022-12-29T03:15:00;11.10;99.90
2851;DHT22;1433;49.976;8.342;2022-12-29T03:18:19;11.10;99.90
2851;DHT22;1433;49.976;8.342;2022-12-29T03:20:45;11.10;99.90
2851;DHT22;1433;49.976;8.342;2022-12-29T03:23:13;11.10;99.90
2851;DHT22;1433;49.976;8.342;2022-12-29T03:25:45;11.10;99.90
2851;DHT22;1433;49.976;8.342;2022-12-29T03:28:27;11.10;99.90
2851;DHT22;1433;49.976;8.342;2022-12-29T03:30:51;11.10;99.90
2851;DHT22;1433;49.976;8.342;2022-12-29T03:33:21;11.20;99.90
2851;DHT22;1433;49.976;8.342;2022-12-29T03:35:50;11.20;99.90
2851;DHT22;1433;49.976;8.342;2022-12-29T03:38:23;11.20;99.90
2851;DHT22;1433;49.976;8.342;2022-12-29T03:40:56;11.20;99.90
2851;DHT22;1433;49.976;8.342;2022-12-29T03:43:25;11.20;99.90
2851;DHT22;1433;49.976;8.342;2022-12-29T03:45:52;11.30;99.90
2851;DHT22;1433;49.976;8.342;2022-12-29T03:48:18;11.30;99.90
2851;DHT22;1433;49.976;8.342;2022-12-29T03:50:45;11.30;99.90
2851;DHT22;1433;49.976;8.342;2022-12-29T03:53:11;11.40;99.90
2851;DHT22;1433;49.976;8.342;2022-12-29T03:55:38;11.40;99.90
2851;DHT22;1433;49.976;8.342;2022-12-29T03:58:04;11.40;99.90
2851;DHT22;1433;49.976;8.342;2022-12-29T04:00:35;11.50;99.90
2851;DHT22;1433;49.976;8.342;2022-12-29T04:03:01;11.50;99.90
2851;DHT22;1433;49.976;8.342;2022-12-29T04:05:28;11.50;99.90
2851;DHT22;1433;49.976;8.342;2022-12-29T04:07:54;11.50;99.90
2851;DHT22;1433;49.976;8.342;2022-12-29T04:10:21;11.60;99.90
2851;DHT22;1433;49.976;8.342;2022-12-29T04:12:49;11.60;99.90
2851;DHT22;1433;49.976;8.342;2022-12-29T04:15:16;11.60;99.90
2851;DHT22;1433;49.976;8.342;2022-12-29T04:17:42;11.70;99.90
2851;DHT22;1433;49.976;8.342;2022-12-29T04:20:09;11.60;99.90
2851;DHT22;1433;49.976;8.342;2022-12-29T04:23:00;11.70;99.90
2851;DHT22;1433;49.976;8.342;2022-12-29T04:25:27;11.70;99.90
2851;DHT22;1433;49.976;8.342;2022-12-29T04:27:53;11.70;99.90
2851;DHT22;1433;49.976;8.342;2022-12-29T04:30:21;11.70;99.90
2851;DHT22;1433;49.976;8.342;2022-12-29T04:32:49;11.70;99.90
2851;DHT22;1433;49.976;8.342;2022-12-29T04:35:16;11.70;99.90
2851;DHT22;1433;49.976;8.342;2022-12-29T04:37:43;11.70;99.90
2851;DHT22;1433;49.976;8.342;2022-12-29T04:40:10;11.80;99.90
2851;DHT22;1433;49.976;8.342;2022-12-29T04:42:36;11.80;99.90
2851;DHT22;1433;49.976;8.342;2022-12-29T04:45:04;11.80;99.90
2851;DHT22;1433;49.976;8.342;2022-12-29T04:47:33;11.80;99.90
2851;DHT22;1433;49.976;8.342;2022-12-29T04:50:05;11.80;99.90
2851;DHT22;1433;49.976;8.342;2022-12-29T04:52:43;11.70;99.90
2851;DHT22;1433;49.976;8.342;2022-12-29T04:55:11;11.60;99.90
2851;DHT22;1433;49.976;8.342;2022-12-29T04:57:38;11.50;99.90
2851;DHT22;1433;49.976;8.342;2022-12-29T05:00:05;11.40;99.90
2851;DHT22;1433;49.976;8.342;2022-12-29T05:02:32;11.30;99.90
2851;DHT22;1433;49.976;8.342;2022-12-29T05:04:58;11.30;99.90
2851;DHT22;1433;49.976;8.342;2022-12-29T05:07:25;11.30;99.90
2851;DHT22;1433;49.976;8.342;2022-12-29T05:09:52;11.30;99.90
2851;DHT22;1433;49.976;8.342;2022-12-29T05:12:19;11.30;99.90
2851;DHT22;1433;49.976;8.342;2022-12-29T05:14:47;11.20;99.90
2851;DHT22;1433;49.976;8.342;2022-12-29T05:17:13;11.20;99.90
2851;DHT22;1433;49.976;8.342;2022-12-29T05:19:40;11.20;99.90
2851;DHT22;1433;49.976;8.342;2022-12-29T05:22:06;11.10;99.90
2851;DHT22;1433;49.976;8.342;2022-12-29T05:24:32;11.20;99.90
2851;DHT22;1433;49.976;8.342;2022-12-29T05:27:00;11.20;99.90
2851;DHT22;1433;49.976;8.342;2022-12-29T05:29:34;11.20;99.90
2851;DHT22;1433;49.976;8.342;2022-12-29T05:32:02;11.20;99.90
2851;DHT22;1433;49.976;8.342;2022-12-29T05:34:29;11.30;99.90
2851;DHT22;1433;49.976;8.342;2022-12-29T05:36:55;11.30;99.90
2851;DHT22;1433;49.976;8.342;2022-12-29T05:39:23;11.30;99.90
2851;DHT22;1433;49.976;8.342;2022-12-29T05:41:51;11.40;99.90
2851;DHT22;1433;49.976;8.342;2022-12-29T05:44:23;11.40;99.90
2851;DHT22;1433;49.976;8.342;2022-12-29T05:47:06;11.40;99.90
2851;DHT22;1433;49.976;8.342;2022-12-29T05:49:34;11.40;99.90
2851;DHT22;1433;49.976;8.342;2022-12-29T05:52:03;11.50;99.90
2851;DHT22;1433;49.976;8.342;2022-12-29T05:54:31;11.50;99.90
2851;DHT22;1433;49.976;8.342;2022-12-29T05:56:57;11.60;99.90
2851;DHT22;1433;49.976;8.342;2022-12-29T05:59:23;11.60;99.90
2851;DHT22;1433;49.976;8.342;2022-12-29T06:01:52;11.60;99.90
2851;DHT22;1433;49.976;8.342;2022-12-29T06:04:18;11.70;99.90
2851;DHT22;1433;49.976;8.342;2022-12-29T06:06:45;11.70;99.90
2851;DHT22;1433;49.976;8.342;2022-12-29T06:09:13;11.70;99.90
2851;DHT22;1433;49.976;8.342;2022-12-29T06:11:39;11.80;99.90
2851;DHT22;1433;49.976;8.342;2022-12-29T06:14:05;11.80;99.90
2851;DHT22;1433;49.976;8.342;2022-12-29T06:16:33;11.80;99.90
2851;DHT22;1433;49.976;8.342;2022-12-29T06:19:01;11.90;99.90
2851;DHT22;1433;49.976;8.342;2022-12-29T06:21:27;12.00;99.90
2851;DHT22;1433;49.976;8.342;2022-12-29T06:23:53;12.00;99.90
2851;DHT22;1433;49.976;8.342;2022-12-29T06:26:20;12.10;99.90
2851;DHT22;1433;49.976;8.342;2022-12-29T06:28:48;12.10;99.90
2851;DHT22;1433;49.976;8.342;2022-12-29T06:31:16;12.10;99.90
2851;DHT22;1433;49.976;8.342;2022-12-29T06:33:42;12.10;99.90
2851;DHT22;1433;49.976;8.342;2022-12-29T06:36:09;12.10;99.90
2851;DHT22;1433;49.976;8.342;2022-12-29T06:38:35;12.10;99.90
2851;DHT22;1433;49.976;8.342;2022-12-29T06:41:01;12.10;99.90
2851;DHT22;1433;49.976;8.342;2022-12-29T06:43:46;12.10;99.90
2851;DHT22;1433;49.976;8.342;2022-12-29T06:46:31;12.10;99.90
2851;DHT22;1433;49.976;8.342;2022-12-29T06:48:57;12.00;99.90
2851;DHT22;1433;49.976;8.342;2022-12-29T06:51:23;12.00;99.90
2851;DHT22;1433;49.976;8.342;2022-12-29T06:53:50;11.90;99.90
2851;DHT22;1433;49.976;8.342;2022-12-29T06:56:16;11.80;99.90
2851;DHT22;1433;49.976;8.342;2022-12-29T06:58:42;11.70;99.90
2851;DHT22;1433;49.976;8.342;2022-12-29T07:01:08;11.60;99.90
2851;DHT22;1433;49.976;8.342;2022-12-29T07:03:34;11.60;99.90
2851;DHT22;1433;49.976;8.342;2022-12-29T07:06:01;11.70;99.90
2851;DHT22;1433;49.976;8.342;2022-12-29T07:08:35;11.70;99.90
2851;DHT22;1433;49.976;8.342;2022-12-29T07:11:01;11.80;99.90
2851;DHT22;1433;49.976;8.342;2022-12-29T07:13:28;11.90;99.90
2851;DHT22;1433;49.976;8.342;2022-12-29T07:15:54;11.80;99.90
2851;DHT22;1433;49.976;8.342;2022-12-29T07:18:20;11.80;99.90
2851;DHT22;1433;49.976;8.342;2022-12-29T07:20:46;11.70;99.90
2851;DHT22;1433;49.976;8.342;2022-12-29T07:23:12;11.70;99.90
2851;DHT22;1433;49.976;8.342;2022-12-29T07:25:38;11.70;99.90
2851;DHT22;1433;49.976;8.342;2022-12-29T07:28:07;11.80;99.90
2851;DHT22;1433;49.976;8.342;2022-12-29T07:30:33;12.00;99.90
2851;DHT22;1433;49.976;8.342;2022-12-29T07:33:11;12.10;99.90
2851;DHT22;1433;49.976;8.342;2022-12-29T07:36:02;12.10;99.90
2851;DHT22;1433;49.976;8.342;2022-12-29T07:38:34;12.20;99.90
2851;DHT22;1433;49.976;8.342;2022-12-29T07:41:00;12.20;99.90
2851;DHT22;1433;49.976;8.342;2022-12-29T07:43:26;12.20;99.90
2851;DHT22;1433;49.976;8.342;2022-12-29T07:45:54;12.20;99.90
2851;DHT22;1433;49.976;8.342;2022-12-29T07:48:22;12.20;99.90
2851;DHT22;1433;49.976;8.342;2022-12-29T07:50:48;12.10;99.90
2851;DHT22;1433;49.976;8.342;2022-12-29T07:53:15;12.10;99.90
2851;DHT22;1433;49.976;8.342;2022-12-29T07:55:41;12.20;99.90
2851;DHT22;1433;49.976;8.342;2022-12-29T07:58:08;12.20;99.90
2851;DHT22;1433;49.976;8.342;2022-12-29T08:00:34;12.20;99.90
2851;DHT22;1433;49.976;8.342;2022-12-29T08:03:01;12.20;99.90
2851;DHT22;1433;49.976;8.342;2022-12-29T08:05:27;12.10;99.90
2851;DHT22;1433;49.976;8.342;2022-12-29T08:07:53;12.00;99.90
2851;DHT22;1433;49.976;8.342;2022-12-29T08:10:19;12.00;99.90
2851;DHT22;1433;49.976;8.342;2022-12-29T08:12:45;12.00;99.90
2851;DHT22;1433;49.976;8.342;2022-12-29T08:15:12;12.00;99.90
2851;DHT22;1433;49.976;8.342;2022-12-29T08:17:38;12.00;99.90
2851;DHT22;1433;49.976;8.342;2022-12-29T08:20:04;12.00;99.90
2851;DHT22;1433;49.976;8.342;2022-12-29T08:22:31;12.00;99.90
2851;DHT22;1433;49.976;8.342;2022-12-29T08:24:57;12.00;99.90
2851;DHT22;1433;49.976;8.342;2022-12-29T08:27:23;12.10;99.90
2851;DHT22;1433;49.976;8.342;2022-12-29T08:29:49;12.20;99.90
2851;DHT22;1433;49.976;8.342;2022-12-29T08:32:16;12.20;99.90
2851;DHT22;1433;49.976;8.342;2022-12-29T08:34:42;12.20;99.90
2851;DHT22;1433;49.976;8.342;2022-12-29T08:37:09;12.20;99.90
2851;DHT22;1433;49.976;8.342;2022-12-29T08:39:35;12.30;99.90
2851;DHT22;1433;49.976;8.342;2022-12-29T08:42:02;12.30;99.90
2851;DHT22;1433;49.976;8.342;2022-12-29T08:44:29;12.40;99.90
2851;DHT22;1433;49.976;8.342;2022-12-29T08:46:56;12.30;99.90
2851;DHT22;1433;49.976;8.342;2022-12-29T08:49:22;12.10;99.90
2851;DHT22;1433;49.976;8.342;2022-12-29T08:51:48;11.80;99.90
2851;DHT22;1433;49.976;8.342;2022-12-29T08:54:14;11.70;99.90
2851;DHT22;1433;49.976;8.342;2022-12-29T08:56:41;11.60;99.90
2851;DHT22;1433;49.976;8.342;2022-12-29T08:59:08;11.40;99.90
2851;DHT22;1433;49.976;8.342;2022-12-29T09:01:35;11.20;99.90
2851;DHT22;1433;49.976;8.342;2022-12-29T09:04:02;10.90;99.90
2851;DHT22;1433;49.976;8.342;2022-12-29T09:06:28;10.60;99.90
2851;DHT22;1433;49.976;8.342;2022-12-29T09:08:54;10.40;99.90
2851;DHT22;1433;49.976;8.342;2022-12-29T09:11:23;10.30;99.90
2851;DHT22;1433;49.976;8.342;2022-12-29T09:13:50;10.30;99.90
2851;DHT22;1433;49.976;8.342;2022-12-29T09:16:17;10.20;99.90
2851;DHT22;1433;49.976;8.342;2022-12-29T09:18:44;10.10;99.90
2851;DHT22;1433;49.976;8.342;2022-12-29T09:21:11;10.20;99.90
2851;DHT22;1433;49.976;8.342;2022-12-29T09:23:38;10.10;99.90
2851;DHT22;1433;49.976;8.342;2022-12-29T09:26:07;10.10;99.90
2851;DHT22;1433;49.976;8.342;2022-12-29T09:28:33;10.10;99.90
2851;DHT22;1433;49.976;8.342;2022-12-29T09:31:00;10.10;99.90
2851;DHT22;1433;49.976;8.342;2022-12-29T09:33:27;10.10;99.90
2851;DHT22;1433;49.976;8.342;2022-12-29T09:35:55;10.10;99.90
2851;DHT22;1433;49.976;8.342;2022-12-29T09:38:23;10.10;99.90
2851;DHT22;1433;49.976;8.342;2022-12-29T09:40:53;10.10;99.90
2851;DHT22;1433;49.976;8.342;2022-12-29T09:43:42;10.10;99.90
2851;DHT22;1433;49.976;8.342;2022-12-29T09:46:09;10.00;99.90
2851;DHT22;1433;49.976;8.342;2022-12-29T09:48:37;10.00;99.90
2851;DHT22;1433;49.976;8.342;2022-12-29T09:51:08;10.00;99.90
2851;DHT22;1433;49.976;8.342;2022-12-29T09:53:36;10.00;99.90
2851;DHT22;1433;49.976;8.342;2022-12-29T09:56:05;10.00;99.90
2851;DHT22;1433;49.976;8.342;2022-12-29T09:58:39;9.90;99.90
2851;DHT22;1433;49.976;8.342;2022-12-29T10:01:13;9.90;99.90
2851;DHT22;1433;49.976;8.342;2022-12-29T10:06:22;9.80;99.90
2851;DHT22;1433;49.976;8.342;2022-12-29T10:23:02;9.80;99.90
2851;DHT22;1433;49.976;8.342;2022-12-29T10:25:28;9.80;99.90
2851;DHT22;1433;49.976;8.342;2022-12-29T10:27:58;9.90;99.90
2851;DHT22;1433;49.976;8.342;2022-12-29T10:30:25;10.00;99.90
2851;DHT22;1433;49.976;8.342;2022-12-29T10:32:57;10.30;99.90
2851;DHT22;1433;49.976;8.342;2022-12-29T10:35:29;10.50;99.90
2851;DHT22;1433;49.976;8.342;2022-12-29T10:38:20;10.60;99.90
2851;DHT22;1433;49.976;8.342;2022-12-29T10:43:29;10.80;99.90
2851;DHT22;1433;49.976;8.342;2022-12-29T10:46:01;10.90;99.90
2851;DHT22;1433;49.976;8.342;2022-12-29T10:48:30;11.00;99.90
2851;DHT22;1433;49.976;8.342;2022-12-29T10:50:58;11.10;99.90
2851;DHT22;1433;49.976;8.342;2022-12-29T10:53:31;11.20;99.90
2851;DHT22;1433;49.976;8.342;2022-12-29T10:55:56;11.20;99.90
2851;DHT22;1433;49.976;8.342;2022-12-29T10:58:25;11.20;99.90
2851;DHT22;1433;49.976;8.342;2022-12-29T11:00:53;11.40;99.90
2851;DHT22;1433;49.976;8.342;2022-12-29T11:08:23;11.80;99.90
2851;DHT22;1433;49.976;8.342;2022-12-29T11:11:05;11.90;99.90
2851;DHT22;1433;49.976;8.342;2022-12-29T11:13:32;11.90;99.90
2851;DHT22;1433;49.976;8.342;2022-12-29T11:15:59;12.00;99.90
2851;DHT22;1433;49.976;8.342;2022-12-29T11:18:35;12.10;99.90
2851;DHT22;1433;49.976;8.342;2022-12-29T11:21:23;12.20;99.90
2851;DHT22;1433;49.976;8.342;2022-12-29T11:23:41;12.30;99.90
2851;DHT22;1433;49.976;8.342;2022-12-29T11:28:39;12.40;99.90
2851;DHT22;1433;49.976;8.342;2022-12-29T11:31:07;12.50;99.90
2851;DHT22;1433;49.976;8.342;2022-12-29T11:33:36;12.50;99.90
2851;DHT22;1433;49.976;8.342;2022-12-29T11:36:10;12.50;99.90
2851;DHT22;1433;49.976;8.342;2022-12-29T11:38:48;12.50;99.90
2851;DHT22;1433;49.976;8.342;2022-12-29T11:41:22;12.60;99.90
2851;DHT22;1433;49.976;8.342;2022-12-29T11:43:49;12.60;99.90
2851;DHT22;1433;49.976;8.342;2022-12-29T11:46:18;12.60;99.90
2851;DHT22;1433;49.976;8.342;2022-12-29T11:48:46;12.60;99.90
2851;DHT22;1433;49.976;8.342;2022-12-29T11:51:27;12.50;99.90
2851;DHT22;1433;49.976;8.342;2022-12-29T11:53:51;12.60;99.90
2851;DHT22;1433;49.976;8.342;2022-12-29T11:56:22;12.60;99.90
2851;DHT22;1433;49.976;8.342;2022-12-29T11:58:50;12.60;99.90
2851;DHT22;1433;49.976;8.342;2022-12-29T12:01:30;12.60;99.90
2851;DHT22;1433;49.976;8.342;2022-12-29T12:04:13;12.60;99.90
2851;DHT22;1433;49.976;8.342;2022-12-29T12:06:47;12.70;99.90
2851;DHT22;1433;49.976;8.342;2022-12-29T12:12:01;12.80;99.90
2851;DHT22;1433;49.976;8.342;2022-12-29T12:14:40;12.80;99.90
2851;DHT22;1433;49.976;8.342;2022-12-29T12:17:17;12.70;99.90
2851;DHT22;1433;49.976;8.342;2022-12-29T12:22:36;12.60;99.90
2851;DHT22;1433;49.976;8.342;2022-12-29T12:27:57;12.50;99.90
2851;DHT22;1433;49.976;8.342;2022-12-29T12:30:33;12.30;99.90
2851;DHT22;1433;49.976;8.342;2022-12-29T12:33:02;12.30;99.90
2851;DHT22;1433;49.976;8.342;2022-12-29T12:38:28;12.20;99.90
2851;DHT22;1433;49.976;8.342;2022-12-29T12:41:08;12.10;99.90
2851;DHT22;1433;49.976;8.342;2022-12-29T12:43:42;12.10;99.90
2851;DHT22;1433;49.976;8.342;2022-12-29T13:09:25;13.30;99.90
2851;DHT22;1433;49.976;8.342;2022-12-29T13:14:59;13.20;99.90
2851;DHT22;1433;49.976;8.342;2022-12-29T13:17:36;13.30;99.90
2851;DHT22;1433;49.976;8.342;2022-12-29T13:25:51;13.00;99.90
2851;DHT22;1433;49.976;8.342;2022-12-29T13:28:49;13.00;99.90
2851;DHT22;1433;49.976;8.342;2022-12-29T13:34:02;12.60;99.90
2851;DHT22;1433;49.976;8.342;2022-12-29T13:36:42;12.40;99.90
2851;DHT22;1433;49.976;8.342;2022-12-29T13:39:25;12.40;99.90
2851;DHT22;1433;49.976;8.342;2022-12-29T13:41:55;12.40;99.90
2851;DHT22;1433;49.976;8.342;2022-12-29T13:44:34;12.40;99.90
2851;DHT22;1433;49.976;8.342;2022-12-29T13:49:57;12.50;99.90
2851;DHT22;1433;49.976;8.342;2022-12-29T14:01:14;12.50;99.90
2851;DHT22;1433;49.976;8.342;2022-12-29T14:03:43;12.50;99.90
2851;DHT22;1433;49.976;8.342;2022-12-29T14:06:30;12.50;99.90
2851;DHT22;1433;49.976;8.342;2022-12-29T14:09:05;12.40;99.90
2851;DHT22;1433;49.976;8.342;2022-12-29T14:11:38;12.40;99.90
2851;DHT22;1433;49.976;8.342;2022-12-29T14:16:47;12.30;99.90
2851;DHT22;1433;49.976;8.342;2022-12-29T14:19:29;12.20;99.90
2851;DHT22;1433;49.976;8.342;2022-12-29T14:21:58;12.20;99.90
2851;DHT22;1433;49.976;8.342;2022-12-29T14:29:47;12.10;99.90
2851;DHT22;1433;49.976;8.342;2022-12-29T14:35:31;12.10;99.90
2851;DHT22;1433;49.976;8.342;2022-12-29T14:40:13;12.20;99.90
2851;DHT22;1433;49.976;8.342;2022-12-29T14:42:34;12.20;99.90
2851;DHT22;1433;49.976;8.342;2022-12-29T14:45:06;12.20;99.90
2851;DHT22;1433;49.976;8.342;2022-12-29T14:47:46;12.20;99.90
2851;DHT22;1433;49.976;8.342;2022-12-29T14:52:55;12.30;59.10
2851;DHT22;1433;49.976;8.342;2022-12-29T14:55:41;12.20;1.00
2851;DHT22;1433;49.976;8.342;2022-12-29T14:58:17;12.20;1.00
2851;DHT22;1433;49.976;8.342;2022-12-29T15:00:44;12.10;1.00
2851;DHT22;1433;49.976;8.342;2022-12-29T15:03:22;11.90;24.10
2851;DHT22;1433;49.976;8.342;2022-12-29T15:06:06;11.80;51.90
2851;DHT22;1433;49.976;8.342;2022-12-29T15:08:51;11.80;96.90
2851;DHT22;1433;49.976;8.342;2022-12-29T15:11:21;11.70;1.00
2851;DHT22;1433;49.976;8.342;2022-12-29T15:13:48;11.70;1.00
2851;DHT22;1433;49.976;8.342;2022-12-29T15:16:26;11.60;44.20
2851;DHT22;1433;49.976;8.342;2022-12-29T15:18:53;11.50;56.80
2851;DHT22;1433;49.976;8.342;2022-12-29T15:21:28;11.50;99.90
2851;DHT22;1433;49.976;8.342;2022-12-29T15:23:55;11.50;99.90
2851;DHT22;1433;49.976;8.342;2022-12-29T15:26:21;11.40;99.90
2851;DHT22;1433;49.976;8.342;2022-12-29T15:28:50;11.20;99.90
2851;DHT22;1433;49.976;8.342;2022-12-29T15:31:24;11.20;99.90
2851;DHT22;1433;49.976;8.342;2022-12-29T15:33:50;11.20;99.90
2851;DHT22;1433;49.976;8.342;2022-12-29T15:36:24;11.20;99.90
2851;DHT22;1433;49.976;8.342;2022-12-29T15:38:52;11.10;99.90
2851;DHT22;1433;49.976;8.342;2022-12-29T15:41:35;11.10;99.90
2851;DHT22;1433;49.976;8.342;2022-12-29T15:44:11;11.00;99.90
2851;DHT22;1433;49.976;8.342;2022-12-29T15:46:37;11.00;99.90
2851;DHT22;1433;49.976;8.342;2022-12-29T15:49:08;10.90;99.90
2851;DHT22;1433;49.976;8.342;2022-12-29T15:51:37;10.90;99.90
2851;DHT22;1433;49.976;8.342;2022-12-29T15:54:04;10.90;99.90
2851;DHT22;1433;49.976;8.342;2022-12-29T15:56:32;10.90;99.90
2851;DHT22;1433;49.976;8.342;2022-12-29T15:59:00;10.90;99.90
2851;DHT22;1433;49.976;8.342;2022-12-29T16:01:30;10.90;99.90
2851;DHT22;1433;49.976;8.342;2022-12-29T16:03:58;10.90;99.90
2851;DHT22;1433;49.976;8.342;2022-12-29T16:09:01;10.70;99.90
2851;DHT22;1433;49.976;8.342;2022-12-29T16:11:37;10.60;99.90
2851;DHT22;1433;49.976;8.342;2022-12-29T16:14:09;10.60;99.90
2851;DHT22;1433;49.976;8.342;2022-12-29T16:16:39;10.60;99.90
2851;DHT22;1433;49.976;8.342;2022-12-29T16:19:18;10.50;99.90
2851;DHT22;1433;49.976;8.342;2022-12-29T16:21:44;10.30;99.90
2851;DHT22;1433;49.976;8.342;2022-12-29T16:24:18;10.30;99.90
2851;DHT22;1433;49.976;8.342;2022-12-29T16:26:49;10.10;99.90
2851;DHT22;1433;49.976;8.342;2022-12-29T16:29:16;10.00;99.90
2851;DHT22;1433;49.976;8.342;2022-12-29T16:34:42;10.00;99.90
2851;DHT22;1433;49.976;8.342;2022-12-29T16:51:21;9.70;99.90
2851;DHT22;1433;49.976;8.342;2022-12-29T16:53:52;9.60;99.90
2851;DHT22;1433;49.976;8.342;2022-12-29T16:56:24;9.60;99.90
2851;DHT22;1433;49.976;8.342;2022-12-29T16:59:26;9.60;99.90
2851;DHT22;1433;49.976;8.342;2022-12-29T17:01:56;9.60;99.90
2851;DHT22;1433;49.976;8.342;2022-12-29T17:04:23;9.60;99.90
2851;DHT22;1433;49.976;8.342;2022-12-29T17:06:49;9.60;99.90
2851;DHT22;1433;49.976;8.342;2022-12-29T17:09:25;9.60;99.90
2851;DHT22;1433;49.976;8.342;2022-12-29T17:11:54;9.60;99.90
2851;DHT22;1433;49.976;8.342;2022-12-29T17:17:40;9.60;99.90
2851;DHT22;1433;49.976;8.342;2022-12-29T17:20:26;9.60;99.90
2851;DHT22;1433;49.976;8.342;2022-12-29T17:22:53;9.70;99.90
2851;DHT22;1433;49.976;8.342;2022-12-29T17:25:21;9.70;99.90
2851;DHT22;1433;49.976;8.342;2022-12-29T17:30:27;9.60;99.90
2851;DHT22;1433;49.976;8.342;2022-12-29T17:33:00;9.50;99.90
2851;DHT22;1433;49.976;8.342;2022-12-29T17:35:27;9.40;99.90
2851;DHT22;1433;49.976;8.342;2022-12-29T17:37:53;9.40;99.90
2851;DHT22;1433;49.976;8.342;2022-12-29T17:40:26;9.40;99.90
2851;DHT22;1433;49.976;8.342;2022-12-29T17:42:55;9.30;99.90
2851;DHT22;1433;49.976;8.342;2022-12-29T17:45:30;9.30;99.90
2851;DHT22;1433;49.976;8.342;2022-12-29T17:47:58;9.20;99.90
2851;DHT22;1433;49.976;8.342;2022-12-29T17:50:29;9.20;99.90
2851;DHT22;1433;49.976;8.342;2022-12-29T17:52:58;9.20;99.90
2851;DHT22;1433;49.976;8.342;2022-12-29T17:55:24;9.10;99.90
2851;DHT22;1433;49.976;8.342;2022-12-29T17:57:53;9.10;99.90
2851;DHT22;1433;49.976;8.342;2022-12-29T18:00:23;9.00;99.90
2851;DHT22;1433;49.976;8.342;2022-12-29T18:02:51;9.00;99.90
2851;DHT22;1433;49.976;8.342;2022-12-29T18:05:24;9.00;99.90
2851;DHT22;1433;49.976;8.342;2022-12-29T18:07:52;8.90;99.90
2851;DHT22;1433;49.976;8.342;2022-12-29T18:10:20;8.90;99.90
2851;DHT22;1433;49.976;8.342;2022-12-29T18:12:49;8.90;99.90
2851;DHT22;1433;49.976;8.342;2022-12-29T18:15:22;8.80;99.90
2851;DHT22;1433;49.976;8.342;2022-12-29T18:17:57;8.80;99.90
2851;DHT22;1433;49.976;8.342;2022-12-29T18:20:24;8.70;99.90
2851;DHT22;1433;49.976;8.342;2022-12-29T18:22:50;8.70;99.90
2851;DHT22;1433;49.976;8.342;2022-12-29T18:25:25;8.70;99.90
2851;DHT22;1433;49.976;8.342;2022-12-29T18:27:52;8.80;99.90
2851;DHT22;1433;49.976;8.342;2022-12-29T18:30:18;8.70;99.90
2851;DHT22;1433;49.976;8.342;2022-12-29T18:32:44;8.80;99.90
2851;DHT22;1433;49.976;8.342;2022-12-29T18:35:33;8.80;99.90
2851;DHT22;1433;49.976;8.342;2022-12-29T18:37:59;8.80;99.90
2851;DHT22;1433;49.976;8.342;2022-12-29T18:40:25;9.00;99.90
2851;DHT22;1433;49.976;8.342;2022-12-29T18:42:54;9.00;99.90
2851;DHT22;1433;49.976;8.342;2022-12-29T18:45:21;9.10;99.90
2851;DHT22;1433;49.976;8.342;2022-12-29T18:47:48;9.20;99.90
2851;DHT22;1433;49.976;8.342;2022-12-29T18:50:15;9.40;99.90
2851;DHT22;1433;49.976;8.342;2022-12-29T18:52:44;9.50;99.90
2851;DHT22;1433;49.976;8.342;2022-12-29T18:55:17;9.40;99.90
2851;DHT22;1433;49.976;8.342;2022-12-29T18:57:43;9.40;99.90
2851;DHT22;1433;49.976;8.342;2022-12-29T19:00:11;9.40;99.90
2851;DHT22;1433;49.976;8.342;2022-12-29T19:02:39;9.40;99.90
2851;DHT22;1433;49.976;8.342;2022-12-29T19:05:27;9.30;99.90
2851;DHT22;1433;49.976;8.342;2022-12-29T19:07:39;9.30;99.90